createdAt,value
2022-10-11T00:01:04.323Z,101129.66
2022-10-11T00:03:32.347Z,101140.22
2022-10-11T00:06:03.688Z,101145.44
2022-10-11T00:08:32.118Z,101149.53
2022-10-11T00:11:01.121Z,101154.38
2022-10-11T00:13:30.371Z,101152.03
2022-10-11T00:15:58.798Z,101154.75
2022-10-11T00:18:29.301Z,101150.06
2022-10-11T00:21:07.385Z,101147.91
2022-10-11T00:23:35.436Z,101154.56
2022-10-11T00:26:06.106Z,101149.66
2022-10-11T00:28:35.289Z,101148.69
2022-10-11T00:31:05.199Z,101151.56
2022-10-11T00:33:33.449Z,101155.69
2022-10-11T00:36:02.220Z,101159.56
2022-10-11T00:38:32.209Z,101169.47
2022-10-11T00:41:00.455Z,101158.84
2022-10-11T00:43:32.864Z,101161.63
2022-10-11T00:46:24.200Z,101177.75
2022-10-11T00:48:58.910Z,101181.50
2022-10-11T00:51:44.502Z,101184.38
2022-10-11T00:54:17.888Z,101193.41
2022-10-11T00:56:49.763Z,101196.22
2022-10-11T00:59:24.786Z,101199.22
2022-10-11T01:01:53.011Z,101201.03
2022-10-11T01:04:20.871Z,101202.97
2022-10-11T01:06:51.755Z,101209.19
2022-10-11T01:09:23.265Z,101205.13
2022-10-11T01:11:54.055Z,101204.66
2022-10-11T01:14:40.018Z,101215.28
2022-10-11T01:17:16.734Z,101217.44
2022-10-11T01:20:03.396Z,101216.81
2022-10-11T01:22:50.669Z,101218.63
2022-10-11T01:25:28.684Z,101219.13
2022-10-11T01:28:29.114Z,101219.13
2022-10-11T01:31:05.072Z,101225.84
2022-10-11T01:33:41.333Z,101223.69
2022-10-11T01:36:19.039Z,101230.16
2022-10-11T01:38:50.611Z,101226.91
2022-10-11T01:41:22.745Z,101225.34
2022-10-11T01:43:53.103Z,101229.19
2022-10-11T01:46:22.789Z,101220.72
2022-10-11T01:48:51.872Z,101230.34
2022-10-11T01:51:23.037Z,101227.22
2022-10-11T01:54:06.905Z,101228.16
2022-10-11T01:56:57.643Z,101226.50
2022-10-11T01:59:40.187Z,101232.25
2022-10-11T02:02:21.390Z,101226.75
2022-10-11T02:04:56.004Z,101226.84
2022-10-11T02:07:30.261Z,101235.50
2022-10-11T02:10:04.859Z,101234.78
2022-10-11T02:12:41.102Z,101230.81
2022-10-11T02:15:15.009Z,101238.63
2022-10-11T02:17:48.806Z,101235.69
2022-10-11T02:20:21.148Z,101247.13
2022-10-11T02:22:52.529Z,101242.81
2022-10-11T02:25:24.075Z,101248.09
2022-10-11T02:27:55.868Z,101242.09
2022-10-11T02:30:23.856Z,101257.97
2022-10-11T02:32:55.670Z,101253.59
2022-10-11T02:35:28.077Z,101259.84
2022-10-11T02:38:05.436Z,101255.78
2022-10-11T02:40:36.737Z,101252.38
2022-10-11T02:43:12.984Z,101250.22
2022-10-11T02:45:45.304Z,101254.28
2022-10-11T02:48:15.379Z,101254.72
2022-10-11T02:50:44.408Z,101250.63
2022-10-11T02:53:12.382Z,101262.50
2022-10-11T02:55:40.403Z,101267.97
2022-10-11T02:58:08.249Z,101275.28
2022-10-11T03:00:36.279Z,101270.47
2022-10-11T03:03:06.521Z,101272.50
2022-10-11T03:05:40.560Z,101270.69
2022-10-11T03:08:09.929Z,101276.41
2022-10-11T03:10:39.536Z,101272.22
2022-10-11T03:13:07.412Z,101281.53
2022-10-11T03:15:35.940Z,101276.47
2022-10-11T03:18:03.883Z,101285.44
2022-10-11T03:20:31.700Z,101287.59
2022-10-11T03:23:00.937Z,101290.44
2022-10-11T03:25:29.330Z,101286.22
2022-10-11T03:27:59.968Z,101298.78
2022-10-11T03:30:28.100Z,101291.09
2022-10-11T03:32:56.076Z,101292.59
2022-10-11T03:35:24.029Z,101298.09
2022-10-11T03:37:51.877Z,101298.28
2022-10-11T03:40:21.338Z,101306.44
2022-10-11T03:42:49.278Z,101302.00
2022-10-11T03:45:17.087Z,101307.41
2022-10-11T03:47:47.387Z,101302.41
2022-10-11T03:50:17.865Z,101308.22
2022-10-11T03:52:45.693Z,101308.22
2022-10-11T03:55:13.630Z,101313.69
2022-10-11T03:57:43.128Z,101308.63
2022-10-11T04:00:11.712Z,101315.81
2022-10-11T04:02:39.540Z,101324.16
2022-10-11T04:05:08.032Z,101314.78
2022-10-11T04:07:35.930Z,101322.78
2022-10-11T04:10:08.562Z,101324.78
2022-10-11T04:12:38.013Z,101333.97
2022-10-11T04:15:08.942Z,101343.69
2022-10-11T04:17:36.742Z,101329.84
2022-10-11T04:20:05.157Z,101336.41
2022-10-11T04:22:35.555Z,101335.66
2022-10-11T04:25:03.357Z,101340.31
2022-10-11T04:27:32.216Z,101334.56
2022-10-11T04:30:00.161Z,101335.53
2022-10-11T04:32:29.393Z,101344.72
2022-10-11T04:34:57.360Z,101347.34
2022-10-11T04:37:27.270Z,101349.34
2022-10-11T04:39:55.134Z,101346.06
2022-10-11T04:42:23.127Z,101351.53
2022-10-11T04:44:55.475Z,101355.97
2022-10-11T04:47:23.445Z,101360.81
2022-10-11T04:49:52.624Z,101365.53
2022-10-11T04:52:25.405Z,101369.97
2022-10-11T04:54:53.859Z,101373.00
2022-10-11T04:57:21.670Z,101380.25
2022-10-11T04:59:50.395Z,101378.47
2022-10-11T05:02:18.955Z,101380.38
2022-10-11T05:04:47.025Z,101391.09
2022-10-11T05:07:16.271Z,101382.69
2022-10-11T05:09:44.192Z,101391.41
2022-10-11T05:12:12.005Z,101384.66
2022-10-11T05:14:40.028Z,101385.69
2022-10-11T05:17:07.760Z,101397.47
2022-10-11T05:19:35.711Z,101403.59
2022-10-11T05:22:03.745Z,101407.16
2022-10-11T05:24:33.128Z,101412.53
2022-10-11T05:27:03.283Z,101409.97
2022-10-11T05:29:31.846Z,101410.94
2022-10-11T05:32:01.886Z,101421.59
2022-10-11T05:34:29.849Z,101428.72
2022-10-11T05:36:57.875Z,101428.94
2022-10-11T05:39:25.786Z,101430.19
2022-10-11T05:41:54.893Z,101430.19
2022-10-11T05:44:22.783Z,101435.53
2022-10-11T05:46:50.614Z,101437.50
2022-10-11T05:49:20.589Z,101441.84
2022-10-11T05:51:48.372Z,101441.91
2022-10-11T05:54:16.353Z,101441.25
2022-10-11T05:56:44.822Z,101447.47
2022-10-11T05:59:14.163Z,101449.38
2022-10-11T06:01:42.058Z,101452.94
2022-10-11T06:04:11.664Z,101454.63
2022-10-11T06:06:41.687Z,101464.22
2022-10-11T06:09:09.680Z,101467.72
2022-10-11T06:11:41.309Z,101472.13
2022-10-11T06:14:35.067Z,101476.38
2022-10-11T06:17:06.837Z,101483.41
2022-10-11T06:19:34.705Z,101485.97
2022-10-11T06:22:02.630Z,101486.69
2022-10-11T06:24:30.491Z,101486.81
2022-10-11T06:26:58.406Z,101491.13
2022-10-11T06:29:26.250Z,101497.91
2022-10-11T06:31:56.279Z,101503.16
2022-10-11T06:34:25.385Z,101494.16
2022-10-11T06:36:55.827Z,101513.41
2022-10-11T06:39:23.698Z,101513.31
2022-10-11T06:41:51.525Z,101519.47
2022-10-11T06:44:19.518Z,101514.84
2022-10-11T06:46:47.407Z,101520.00
2022-10-11T06:49:22.968Z,101514.72
2022-10-11T06:51:54.945Z,101526.22
2022-10-11T06:54:22.844Z,101526.03
2022-10-11T06:56:53.073Z,101533.09
2022-10-11T06:59:21.149Z,101535.34
2022-10-11T07:01:51.520Z,101534.41
2022-10-11T07:04:21.625Z,101535.91
2022-10-11T07:06:50.061Z,101536.56
2022-10-11T07:09:19.259Z,101539.88
2022-10-11T07:11:48.856Z,101544.09
2022-10-11T07:14:16.734Z,101547.47
2022-10-11T07:16:44.716Z,101553.41
2022-10-11T07:19:12.601Z,101555.66
2022-10-11T07:21:40.487Z,101568.66
2022-10-11T07:24:08.601Z,101563.09
2022-10-11T07:26:38.747Z,101566.19
2022-10-11T07:29:12.359Z,101569.50
2022-10-11T07:31:42.285Z,101566.63
2022-10-11T07:34:10.690Z,101571.63
2022-10-11T07:36:38.675Z,101566.69
2022-10-11T07:39:08.206Z,101566.53
2022-10-11T07:41:43.126Z,101569.69
2022-10-11T07:44:13.571Z,101568.34
2022-10-11T07:46:41.398Z,101562.69
2022-10-11T07:49:09.298Z,101563.97
2022-10-11T07:51:37.303Z,101560.94
2022-10-11T07:54:07.695Z,101556.13
2022-10-11T07:56:38.085Z,101558.28
2022-10-11T07:59:06.374Z,101552.69
2022-10-11T08:01:34.336Z,101554.84
2022-10-11T08:04:02.302Z,101566.56
2022-10-11T08:06:32.418Z,101561.31
2022-10-11T08:09:02.087Z,101561.84
2022-10-11T08:11:32.305Z,101563.25
2022-10-11T08:14:04.342Z,101562.84
2022-10-11T08:16:32.138Z,101572.03
2022-10-11T08:19:00.956Z,101563.78
2022-10-11T08:21:28.829Z,101562.41
2022-10-11T08:23:58.911Z,101568.22
2022-10-11T08:26:26.798Z,101566.84
2022-10-11T08:28:54.953Z,101572.34
2022-10-11T08:31:24.100Z,101571.91
2022-10-11T08:33:52.015Z,101572.31
2022-10-11T08:36:19.826Z,101571.06
2022-10-11T08:38:50.304Z,101567.38
2022-10-11T08:41:32.677Z,101564.16
2022-10-11T08:44:18.497Z,101564.47
2022-10-11T08:46:51.775Z,101561.47
2022-10-11T08:49:24.640Z,101553.88
2022-10-11T08:52:00.054Z,101561.91
2022-10-11T08:54:38.791Z,101569.28
2022-10-11T08:57:08.864Z,101558.13
2022-10-11T08:59:42.452Z,101555.03
2022-10-11T09:02:25.193Z,101555.56
2022-10-11T09:04:55.624Z,101545.34
2022-10-11T09:07:38.565Z,101557.81
2022-10-11T09:10:25.357Z,101551.00
2022-10-11T09:13:02.474Z,101557.63
2022-10-11T09:15:39.474Z,101548.97
2022-10-11T09:18:35.708Z,101552.66
2022-10-11T09:21:19.008Z,101550.25
2022-10-11T09:24:07.566Z,101550.63
2022-10-11T09:26:43.584Z,101554.63
2022-10-11T09:29:18.718Z,101550.66
2022-10-11T09:31:49.611Z,101552.00
2022-10-11T09:34:19.728Z,101554.31
2022-10-11T09:36:55.810Z,101551.91
2022-10-11T09:39:31.089Z,101552.91
2022-10-11T09:42:02.592Z,101552.19
2022-10-11T09:44:34.962Z,101548.94
2022-10-11T09:47:02.964Z,101547.50
2022-10-11T09:49:37.002Z,101550.63
2022-10-11T09:52:12.182Z,101550.41
2022-10-11T09:54:42.281Z,101557.13
2022-10-11T09:57:20.973Z,101546.28
2022-10-11T10:00:00.923Z,101547.22
2022-10-11T10:02:29.947Z,101546.63
2022-10-11T10:05:14.060Z,101546.84
2022-10-11T10:08:04.126Z,101542.38
2022-10-11T10:10:39.733Z,101541.88
2022-10-11T10:13:21.918Z,101544.47
2022-10-11T10:15:53.474Z,101539.56
2022-10-11T10:18:24.720Z,101541.84
2022-10-11T10:20:56.620Z,101538.69
2022-10-11T10:23:29.731Z,101533.44
2022-10-11T10:26:22.652Z,101531.72
2022-10-11T10:29:18.532Z,101529.63
2022-10-11T10:32:14.393Z,101529.53
2022-10-11T10:34:56.274Z,101535.44
2022-10-11T10:37:30.259Z,101535.16
2022-10-11T10:40:06.494Z,101524.78
2022-10-11T10:42:34.441Z,101524.41
2022-10-11T10:45:07.343Z,101525.81
2022-10-11T10:48:04.021Z,101518.88
2022-10-11T10:50:44.448Z,101515.00
2022-10-11T10:53:25.368Z,101517.13
2022-10-11T10:56:00.199Z,101519.13
2022-10-11T10:58:51.165Z,101516.16
2022-10-11T11:01:27.215Z,101518.41
2022-10-11T11:04:02.579Z,101519.09
2022-10-11T11:06:37.916Z,101521.25
2022-10-11T11:09:22.416Z,101521.84
2022-10-11T11:12:00.260Z,101515.31
2022-10-11T11:14:41.287Z,101524.16
2022-10-11T11:17:19.255Z,101516.91
2022-10-11T11:20:00.916Z,101518.63
2022-10-11T11:22:40.248Z,101519.78
2022-10-11T11:25:24.807Z,101515.59
2022-10-11T11:28:05.121Z,101512.09
2022-10-11T11:30:45.667Z,101508.19
2022-10-11T11:33:24.918Z,101508.50
2022-10-11T11:35:58.783Z,101508.06
2022-10-11T11:38:35.058Z,101502.03
2022-10-11T11:41:10.858Z,101493.78
2022-10-11T11:43:48.153Z,101497.72
2022-10-11T11:46:21.342Z,101491.84
2022-10-11T11:48:50.059Z,101493.56
2022-10-11T11:51:22.068Z,101491.72
2022-10-11T11:53:59.058Z,101485.72
2022-10-11T11:56:34.236Z,101485.41
2022-10-11T11:59:10.683Z,101485.28
2022-10-11T12:01:44.002Z,101483.84
2022-10-11T12:04:20.822Z,101481.72
2022-10-11T12:07:16.057Z,101484.78
2022-10-11T12:09:50.494Z,101476.34
2022-10-11T12:12:31.809Z,101478.28
2022-10-11T12:15:17.553Z,101470.41
2022-10-11T12:18:04.508Z,101473.63
2022-10-11T12:20:36.902Z,101468.53
2022-10-11T12:23:25.787Z,101455.13
2022-10-11T12:26:19.806Z,101460.44
2022-10-11T12:29:35.488Z,101451.19
2022-10-11T12:32:51.919Z,101458.75
2022-10-11T12:35:53.725Z,101449.16
2022-10-11T12:38:31.274Z,101446.38
2022-10-11T12:41:04.097Z,101437.41
2022-10-11T12:43:36.158Z,101431.59
2022-10-11T12:46:58.836Z,101438.69
2022-10-11T12:49:36.605Z,101430.00
2022-10-11T12:52:25.120Z,101433.16
2022-10-11T12:55:12.632Z,101426.34
2022-10-11T12:58:12.711Z,101428.41
2022-10-11T13:00:46.704Z,101424.41
2022-10-11T13:03:32.576Z,101418.47
2022-10-11T13:06:13.533Z,101420.44
2022-10-11T13:08:46.595Z,101426.56
2022-10-11T13:11:21.617Z,101426.97
2022-10-11T13:13:56.420Z,101425.31
2022-10-11T13:16:26.975Z,101424.72
2022-10-11T13:18:58.684Z,101431.59
2022-10-11T13:21:30.651Z,101426.81
2022-10-11T13:24:03.197Z,101422.25
2022-10-11T13:26:32.984Z,101423.00
2022-10-11T13:29:01.349Z,101422.44
2022-10-11T13:31:31.774Z,101423.25
2022-10-11T13:34:05.729Z,101415.59
2022-10-11T13:36:33.720Z,101420.13
2022-10-11T13:39:02.709Z,101415.16
2022-10-11T13:41:34.918Z,101411.41
2022-10-11T13:44:04.459Z,101414.97
2022-10-11T13:46:34.243Z,101416.66
2022-10-11T13:49:07.703Z,101408.28
2022-10-11T13:51:37.152Z,101411.25
2022-10-11T13:54:13.273Z,101410.28
2022-10-11T13:56:48.711Z,101413.72
2022-10-11T13:59:19.999Z,101402.53
2022-10-11T14:02:01.317Z,101403.56
2022-10-11T14:04:39.534Z,101403.44
2022-10-11T14:07:23.547Z,101399.03
2022-10-11T14:09:52.001Z,101396.56
2022-10-11T14:12:38.096Z,101401.38
2022-10-11T14:15:23.290Z,101404.03
2022-10-11T14:17:52.116Z,101397.84
2022-10-11T14:20:23.897Z,101394.00
2022-10-11T14:22:55.044Z,101398.16
2022-10-11T14:25:23.004Z,101391.44
2022-10-11T14:27:54.281Z,101384.59
2022-10-11T14:30:26.202Z,101391.63
2022-10-11T14:32:57.276Z,101394.13
2022-10-11T14:35:33.295Z,101377.69
2022-10-11T14:38:01.310Z,101383.72
2022-10-11T14:40:31.494Z,101380.81
2022-10-11T14:43:03.053Z,101386.34
2022-10-11T14:45:33.600Z,101387.44
2022-10-11T14:48:01.392Z,101385.84
2022-10-11T14:50:36.357Z,101388.81
2022-10-11T14:53:04.793Z,101386.06
2022-10-11T14:55:33.007Z,101385.38
2022-10-11T14:58:01.353Z,101391.72
2022-10-11T15:00:31.728Z,101383.66
2022-10-11T15:02:59.988Z,101388.59
2022-10-11T15:05:33.858Z,101382.72
2022-10-11T15:08:02.668Z,101379.84
2022-10-11T15:10:34.607Z,101373.97
2022-10-11T15:13:03.319Z,101378.63
2022-10-11T15:15:35.423Z,101368.69
2022-10-11T15:18:07.907Z,101369.00
2022-10-11T15:20:40.265Z,101369.59
2022-10-11T15:23:10.361Z,101378.38
2022-10-11T15:25:40.158Z,101374.09
2022-10-11T15:28:08.927Z,101381.34
2022-10-11T15:30:41.623Z,101379.75
2022-10-11T15:33:12.242Z,101378.13
2022-10-11T15:35:39.985Z,101391.38
2022-10-11T15:38:07.860Z,101382.75
2022-10-11T15:40:37.982Z,101381.22
2022-10-11T15:43:08.009Z,101376.06
2022-10-11T15:45:37.897Z,101381.75
2022-10-11T15:48:06.275Z,101390.22
2022-10-11T15:50:37.754Z,101382.41
2022-10-11T15:53:07.764Z,101382.44
2022-10-11T15:55:38.403Z,101377.81
2022-10-11T15:58:06.831Z,101372.66
2022-10-11T16:00:34.681Z,101376.72
2022-10-11T16:03:07.148Z,101380.06
2022-10-11T16:05:34.900Z,101376.72
2022-10-11T16:08:02.705Z,101380.38
2022-10-11T16:10:30.576Z,101377.00
2022-10-11T16:12:58.571Z,101382.59
2022-10-11T16:15:26.563Z,101388.06
2022-10-11T16:17:56.649Z,101388.59
2022-10-11T16:20:25.971Z,101398.97
2022-10-11T16:22:55.236Z,101387.75
2022-10-11T16:25:23.906Z,101400.81
2022-10-11T16:27:52.610Z,101390.44
2022-10-11T16:30:21.442Z,101397.41
2022-10-11T16:32:49.412Z,101395.66
2022-10-11T16:35:18.096Z,101407.81
2022-10-11T16:37:47.841Z,101402.97
2022-10-11T16:40:20.391Z,101404.47
2022-10-11T16:42:49.009Z,101401.44
2022-10-11T16:45:17.265Z,101403.31
2022-10-11T16:47:45.441Z,101398.06
2022-10-11T16:50:16.402Z,101401.59
2022-10-11T16:52:44.274Z,101404.53
2022-10-11T16:55:15.731Z,101412.44
2022-10-11T16:57:43.469Z,101408.03
2022-10-11T17:00:13.335Z,101406.09
2022-10-11T17:02:41.299Z,101400.00
2022-10-11T17:05:09.144Z,101398.09
2022-10-11T17:07:37.226Z,101404.97
2022-10-11T17:10:06.060Z,101411.03
2022-10-11T17:12:37.228Z,101406.47
2022-10-11T17:15:06.624Z,101407.44
2022-10-11T17:17:35.068Z,101409.94
2022-10-11T17:20:06.295Z,101407.16
2022-10-11T17:22:34.273Z,101408.84
2022-10-11T17:25:03.332Z,101407.28
2022-10-11T17:27:31.237Z,101405.22
2022-10-11T17:30:00.399Z,101413.63
2022-10-11T17:32:28.302Z,101412.53
2022-10-11T17:34:57.244Z,101409.63
2022-10-11T17:37:25.121Z,101414.56
2022-10-11T17:39:53.785Z,101406.34
2022-10-11T17:42:21.760Z,101410.41
2022-10-11T17:44:49.605Z,101412.56
2022-10-11T17:47:18.918Z,101407.97
2022-10-11T17:49:46.789Z,101412.84
2022-10-11T17:52:14.562Z,101411.63
2022-10-11T17:54:44.524Z,101411.97
2022-10-11T17:57:14.476Z,101407.09
2022-10-11T17:59:42.460Z,101409.47
2022-10-11T18:02:10.840Z,101410.84
2022-10-11T18:04:40.170Z,101412.16
2022-10-11T18:07:08.001Z,101417.88
2022-10-11T18:09:36.733Z,101423.75
2022-10-11T18:12:04.802Z,101422.38
2022-10-11T18:14:32.716Z,101423.75
2022-10-11T18:17:00.712Z,101428.56
2022-10-11T18:19:31.914Z,101422.03
2022-10-11T18:22:05.838Z,101427.72
2022-10-11T18:24:37.265Z,101428.50
2022-10-11T18:27:09.661Z,101429.78
2022-10-11T18:29:37.545Z,101434.00
2022-10-11T18:32:05.431Z,101432.63
2022-10-11T18:34:33.305Z,101432.09
2022-10-11T18:37:04.949Z,101426.50
2022-10-11T18:39:32.790Z,101427.56
2022-10-11T18:42:04.195Z,101424.50
2022-10-11T18:44:32.945Z,101428.28
2022-10-11T18:47:01.031Z,101430.44
2022-10-11T18:49:28.969Z,101426.47
2022-10-11T18:51:56.795Z,101427.53
2022-10-11T18:54:26.072Z,101430.66
2022-10-11T18:56:53.910Z,101430.25
2022-10-11T18:59:21.804Z,101422.66
2022-10-11T19:01:52.153Z,101427.38
2022-10-11T19:04:21.116Z,101425.88
2022-10-11T19:06:50.490Z,101431.47
2022-10-11T19:09:21.805Z,101424.59
2022-10-11T19:11:51.950Z,101422.25
2022-10-11T19:14:22.035Z,101418.16
2022-10-11T19:16:51.666Z,101424.47
2022-10-11T19:19:21.366Z,101423.19
2022-10-11T19:21:49.459Z,101420.84
2022-10-11T19:24:18.215Z,101431.81
2022-10-11T19:26:46.214Z,101424.09
2022-10-11T19:29:19.736Z,101421.66
2022-10-11T19:31:49.952Z,101429.66
2022-10-11T19:34:18.283Z,101420.34
2022-10-11T19:36:46.388Z,101425.06
2022-10-11T19:39:18.912Z,101427.19
2022-10-11T19:41:47.056Z,101428.22
2022-10-11T19:44:17.326Z,101422.28
2022-10-11T19:46:53.349Z,101426.06
2022-10-11T19:49:22.444Z,101424.47
2022-10-11T19:51:53.071Z,101421.94
2022-10-11T19:54:21.037Z,101427.31
2022-10-11T19:56:49.036Z,101420.53
2022-10-11T19:59:18.340Z,101416.31
2022-10-11T20:01:51.311Z,101420.06
2022-10-11T20:04:47.453Z,101416.78
2022-10-11T20:07:11.494Z,101424.03
2022-10-11T20:09:39.442Z,101418.22
2022-10-11T20:12:07.989Z,101420.09
2022-10-11T20:14:37.181Z,101426.53
2022-10-11T20:17:08.086Z,101423.41
2022-10-11T20:19:36.060Z,101427.84
2022-10-11T20:22:06.065Z,101422.75
2022-10-11T20:24:34.545Z,101417.69
2022-10-11T20:27:04.363Z,101420.41
2022-10-11T20:29:32.400Z,101421.44
2022-10-11T20:32:01.644Z,101424.16
2022-10-11T20:34:30.309Z,101424.31
2022-10-11T20:36:58.231Z,101423.66
2022-10-11T20:39:28.380Z,101423.00
2022-10-11T20:41:56.271Z,101420.47
2022-10-11T20:44:24.183Z,101418.97
2022-10-11T20:46:51.993Z,101422.63
2022-10-11T20:49:22.338Z,101423.88
2022-10-11T20:51:50.861Z,101425.84
2022-10-11T20:54:18.674Z,101414.53
2022-10-11T20:56:46.586Z,101422.78
2022-10-11T20:59:16.529Z,101432.56
2022-10-11T21:01:44.423Z,101429.28
2022-10-11T21:04:18.764Z,101430.31
2022-10-11T21:06:49.209Z,101428.81
2022-10-11T21:09:17.519Z,101415.09
2022-10-11T21:11:45.379Z,101424.00
2022-10-11T21:14:13.562Z,101420.69
2022-10-11T21:16:41.962Z,101425.13
2022-10-11T21:19:14.125Z,101431.16
2022-10-11T21:21:42.156Z,101434.06
2022-10-11T21:24:11.409Z,101431.50
2022-10-11T21:26:39.300Z,101436.09
2022-10-11T21:29:08.327Z,101434.50
2022-10-11T21:31:36.318Z,101433.66
2022-10-11T21:34:05.115Z,101435.50
2022-10-11T21:36:33.023Z,101428.00
2022-10-11T21:39:00.845Z,101433.34
2022-10-11T21:41:30.751Z,101423.94
2022-10-11T21:43:59.178Z,101436.41
2022-10-11T21:46:54.108Z,101434.91
2022-10-11T21:49:16.886Z,101435.00
2022-10-11T21:51:44.908Z,101435.06
2022-10-11T21:54:12.914Z,101442.97
2022-10-11T21:56:42.345Z,101437.13
2022-10-11T21:59:12.386Z,101435.59
2022-10-11T22:01:41.628Z,101441.06
2022-10-11T22:04:10.051Z,101442.91
2022-10-11T22:06:38.764Z,101434.34
2022-10-11T22:09:09.613Z,101433.59
2022-10-11T22:11:37.750Z,101434.72
2022-10-11T22:14:07.114Z,101433.09
2022-10-11T22:16:35.956Z,101433.09
2022-10-11T22:19:04.121Z,101433.09
2022-10-11T22:21:32.195Z,101438.53
2022-10-11T22:24:00.056Z,101428.28
2022-10-11T22:26:30.931Z,101440.59
2022-10-11T22:29:00.047Z,101438.19
2022-10-11T22:31:29.713Z,101425.16
2022-10-11T22:33:59.132Z,101428.06
2022-10-11T22:36:31.306Z,101431.69
2022-10-11T22:38:59.513Z,101429.06
2022-10-11T22:41:27.611Z,101430.81
2022-10-11T22:43:55.506Z,101427.72
2022-10-11T22:46:23.542Z,101424.28
2022-10-11T22:48:52.815Z,101418.47
2022-10-11T22:51:20.976Z,101423.06
2022-10-11T22:53:48.830Z,101417.69
2022-10-11T22:56:16.704Z,101424.06
2022-10-11T22:58:44.537Z,101421.44
2022-10-11T23:01:14.776Z,101412.69
2022-10-11T23:03:42.991Z,101411.44
2022-10-11T23:06:14.400Z,101418.72
2022-10-11T23:08:42.330Z,101409.97
2022-10-11T23:11:12.402Z,101410.91
2022-10-11T23:13:40.348Z,101414.66
2022-10-11T23:16:08.876Z,101411.44
2022-10-11T23:18:36.983Z,101412.41
2022-10-11T23:21:05.711Z,101420.25
2022-10-11T23:23:34.932Z,101415.03
2022-10-11T23:26:08.637Z,101413.25
2022-10-11T23:28:36.605Z,101419.44
2022-10-11T23:31:09.084Z,101429.84
2022-10-11T23:33:37.377Z,101419.44
2022-10-11T23:36:13.886Z,101419.53
2022-10-11T23:38:45.758Z,101413.34
2022-10-11T23:41:13.592Z,101416.16
2022-10-11T23:43:41.444Z,101421.53
2022-10-11T23:46:09.242Z,101414.59
2022-10-11T23:48:37.104Z,101419.84
2022-10-11T23:51:04.994Z,101419.25
2022-10-11T23:53:33.026Z,101419.56
2022-10-11T23:56:02.239Z,101419.13
2022-10-11T23:58:30.224Z,101419.13
